createdAt,value
2022-10-18T00:00:14.652Z,18.95
2022-10-18T00:02:41.265Z,19.12
2022-10-18T00:05:08.235Z,19.32
2022-10-18T00:07:34.816Z,19.22
2022-10-18T00:10:01.560Z,19.28
2022-10-18T00:12:28.119Z,19.27
2022-10-18T00:14:54.751Z,19.20
2022-10-18T00:17:21.287Z,19.06
2022-10-18T00:19:49.278Z,19.12
2022-10-18T00:22:15.954Z,19.12
2022-10-18T00:24:42.567Z,19.21
2022-10-18T00:27:09.094Z,19.19
2022-10-18T00:29:35.653Z,19.12
2022-10-18T00:32:02.265Z,18.95
2022-10-18T00:34:29.025Z,18.91
2022-10-18T00:36:56.547Z,19.25
2022-10-18T00:39:23.155Z,19.13
2022-10-18T00:41:50.575Z,18.97
2022-10-18T00:44:17.215Z,19.15
2022-10-18T00:46:46.982Z,19.11
2022-10-18T00:49:22.911Z,19.14
2022-10-18T00:52:05.130Z,19.19
2022-10-18T00:54:37.160Z,19.05
2022-10-18T00:57:04.755Z,19.01
2022-10-18T00:59:31.440Z,18.84
2022-10-18T01:01:58.332Z,18.63
2022-10-18T01:04:25.475Z,18.94
2022-10-18T01:07:20.697Z,18.94
2022-10-18T01:10:08.899Z,19.02
2022-10-18T01:13:09.698Z,19.06
2022-10-18T01:15:58.401Z,18.99
2022-10-18T01:18:44.208Z,18.95
2022-10-18T01:21:29.450Z,19.15
2022-10-18T01:24:26.453Z,18.87
2022-10-18T01:27:24.204Z,18.81
2022-10-18T01:30:12.427Z,18.79
2022-10-18T01:32:52.593Z,18.66
2022-10-18T01:35:26.605Z,18.73
2022-10-18T01:37:57.561Z,18.74
2022-10-18T01:40:25.370Z,18.60
2022-10-18T01:42:53.038Z,18.67
2022-10-18T01:45:22.607Z,18.59
2022-10-18T01:47:50.912Z,18.37
2022-10-18T01:50:29.867Z,18.16
2022-10-18T01:52:57.426Z,18.70
2022-10-18T01:55:32.079Z,18.86
2022-10-18T01:58:25.539Z,18.80
2022-10-18T02:01:03.909Z,18.75
2022-10-18T02:03:30.511Z,18.63
2022-10-18T02:06:00.388Z,18.72
2022-10-18T02:08:47.018Z,18.88
2022-10-18T02:11:15.761Z,18.96
2022-10-18T02:13:47.956Z,18.95
2022-10-18T02:16:20.036Z,18.89
2022-10-18T02:18:55.155Z,18.94
2022-10-18T02:21:23.685Z,18.62
2022-10-18T02:23:50.610Z,18.54
2022-10-18T02:26:17.264Z,18.32
2022-10-18T02:28:44.207Z,18.31
2022-10-18T02:31:16.955Z,18.35
2022-10-18T02:33:58.650Z,18.24
2022-10-18T02:36:59.268Z,18.18
2022-10-18T02:39:31.049Z,18.37
2022-10-18T02:41:58.422Z,18.20
2022-10-18T02:44:25.417Z,18.31
2022-10-18T02:46:52.494Z,18.22
2022-10-18T02:49:19.032Z,18.20
2022-10-18T02:51:45.541Z,18.09
2022-10-18T02:54:12.046Z,17.95
2022-10-18T02:56:38.625Z,17.84
2022-10-18T02:59:07.347Z,17.81
2022-10-18T03:01:36.138Z,17.83
2022-10-18T03:04:03.669Z,17.79
2022-10-18T03:06:30.726Z,17.81
2022-10-18T03:08:57.240Z,17.78
2022-10-18T03:11:24.137Z,17.75
2022-10-18T03:13:51.127Z,17.76
2022-10-18T03:16:18.181Z,17.57
2022-10-18T03:18:44.753Z,17.56
2022-10-18T03:21:11.296Z,17.63
2022-10-18T03:23:37.993Z,17.63
2022-10-18T03:26:04.629Z,17.39
2022-10-18T03:28:31.336Z,17.41
2022-10-18T03:31:04.654Z,17.34
2022-10-18T03:33:32.237Z,17.37
2022-10-18T03:35:58.858Z,17.23
2022-10-18T03:38:25.451Z,17.40
2022-10-18T03:40:51.965Z,17.24
2022-10-18T03:43:18.501Z,17.17
2022-10-18T03:45:45.323Z,17.10
2022-10-18T03:48:11.938Z,17.16
2022-10-18T03:50:38.575Z,17.21
2022-10-18T03:53:05.478Z,17.27
2022-10-18T03:55:34.712Z,17.28
2022-10-18T03:58:01.222Z,17.14
2022-10-18T04:00:27.978Z,17.17
2022-10-18T04:02:55.979Z,17.24
2022-10-18T04:05:28.116Z,17.29
2022-10-18T04:07:55.052Z,17.23
2022-10-18T04:10:21.913Z,17.32
2022-10-18T04:12:48.493Z,17.26
2022-10-18T04:15:15.243Z,17.05
2022-10-18T04:17:42.144Z,17.03
2022-10-18T04:20:09.157Z,17.06
2022-10-18T04:22:35.783Z,17.01
2022-10-18T04:25:02.316Z,16.98
2022-10-18T04:27:29.078Z,17.10
2022-10-18T04:29:55.918Z,16.95
2022-10-18T04:32:22.532Z,17.15
2022-10-18T04:34:49.072Z,17.04
2022-10-18T04:37:15.685Z,17.08
2022-10-18T04:39:49.818Z,17.02
2022-10-18T04:42:19.357Z,16.96
2022-10-18T04:44:45.939Z,17.03
2022-10-18T04:47:12.490Z,17.09
2022-10-18T04:49:39.016Z,16.96
2022-10-18T04:52:05.651Z,17.09
2022-10-18T04:54:32.275Z,16.89
2022-10-18T04:56:58.908Z,16.81
2022-10-18T04:59:25.531Z,17.02
2022-10-18T05:01:52.251Z,16.99
2022-10-18T05:04:18.878Z,16.83
2022-10-18T05:06:45.462Z,16.84
2022-10-18T05:09:12.128Z,16.69
2022-10-18T05:11:38.727Z,16.71
2022-10-18T05:14:05.342Z,16.80
2022-10-18T05:16:32.554Z,16.73
2022-10-18T05:18:59.131Z,16.69
2022-10-18T05:21:25.710Z,16.73
2022-10-18T05:23:56.171Z,16.59
2022-10-18T05:26:22.732Z,16.71
2022-10-18T05:28:50.765Z,16.78
2022-10-18T05:31:17.879Z,16.77
2022-10-18T05:33:44.446Z,16.55
2022-10-18T05:36:11.234Z,16.65
2022-10-18T05:38:42.987Z,16.61
2022-10-18T05:41:10.482Z,16.57
2022-10-18T05:43:37.399Z,16.44
2022-10-18T05:46:07.240Z,16.32
2022-10-18T05:48:36.137Z,16.16
2022-10-18T05:51:02.707Z,16.21
2022-10-18T05:53:37.184Z,16.31
2022-10-18T05:56:05.341Z,16.19
2022-10-18T05:58:31.975Z,16.20
2022-10-18T06:01:02.639Z,16.13
2022-10-18T06:03:30.872Z,16.08
2022-10-18T06:06:10.925Z,16.23
2022-10-18T06:08:38.837Z,16.22
2022-10-18T06:11:20.257Z,16.16
2022-10-18T06:13:48.930Z,15.93
2022-10-18T06:16:17.278Z,15.91
2022-10-18T06:18:47.071Z,16.02
2022-10-18T06:21:13.576Z,15.91
2022-10-18T06:23:40.674Z,15.94
2022-10-18T06:26:10.165Z,16.07
2022-10-18T06:28:38.255Z,16.10
2022-10-18T06:31:06.275Z,16.19
2022-10-18T06:33:34.233Z,16.22
2022-10-18T06:36:04.021Z,16.35
2022-10-18T06:38:30.916Z,16.37
2022-10-18T06:41:00.047Z,16.49
2022-10-18T06:43:27.095Z,16.51
2022-10-18T06:45:54.839Z,16.59
2022-10-18T06:48:22.538Z,16.62
2022-10-18T06:50:57.523Z,16.72
2022-10-18T06:53:32.793Z,16.75
2022-10-18T06:56:04.209Z,16.86
2022-10-18T06:58:31.508Z,16.89
2022-10-18T07:00:58.665Z,16.99
2022-10-18T07:03:26.294Z,17.14
2022-10-18T07:05:52.883Z,17.14
2022-10-18T07:08:19.389Z,17.28
2022-10-18T07:10:55.428Z,17.39
2022-10-18T07:13:38.833Z,17.61
2022-10-18T07:16:14.091Z,17.83
2022-10-18T07:18:49.745Z,18.12
2022-10-18T07:21:19.141Z,18.44
2022-10-18T07:23:46.401Z,19.16
2022-10-18T07:26:25.104Z,19.81
2022-10-18T07:28:55.379Z,20.22
2022-10-18T07:31:25.892Z,20.51
2022-10-18T07:33:54.821Z,20.79
2022-10-18T07:36:22.203Z,21.11
2022-10-18T07:38:49.448Z,21.18
2022-10-18T07:41:15.991Z,21.27
2022-10-18T07:43:45.791Z,21.50
2022-10-18T07:46:13.268Z,21.87
2022-10-18T07:48:40.392Z,22.37
2022-10-18T07:51:07.257Z,22.71
2022-10-18T07:53:34.674Z,23.00
2022-10-18T07:56:08.762Z,23.08
2022-10-18T07:58:36.991Z,23.31
2022-10-18T08:01:04.906Z,23.60
2022-10-18T08:03:31.817Z,23.80
2022-10-18T08:05:58.769Z,24.07
2022-10-18T08:08:26.003Z,24.26
2022-10-18T08:10:52.748Z,24.56
2022-10-18T08:13:19.534Z,24.85
2022-10-18T08:15:47.517Z,25.09
2022-10-18T08:18:14.239Z,25.25
2022-10-18T08:20:45.326Z,25.46
2022-10-18T08:23:11.923Z,25.37
2022-10-18T08:25:38.597Z,25.18
2022-10-18T08:28:05.434Z,25.50
2022-10-18T08:30:32.163Z,25.75
2022-10-18T08:33:00.580Z,25.96
2022-10-18T08:35:27.280Z,25.95
2022-10-18T08:37:54.078Z,26.06
2022-10-18T08:40:20.929Z,26.36
2022-10-18T08:43:21.456Z,26.48
2022-10-18T08:45:50.877Z,26.75
2022-10-18T08:48:42.059Z,27.04
2022-10-18T08:51:35.165Z,27.12
2022-10-18T08:54:11.792Z,27.33
2022-10-18T08:56:41.749Z,27.61
2022-10-18T08:59:12.591Z,27.74
2022-10-18T09:01:54.426Z,27.78
2022-10-18T09:04:57.000Z,27.75
2022-10-18T09:07:53.232Z,28.25
2022-10-18T09:10:37.567Z,28.69
2022-10-18T09:13:19.391Z,28.95
2022-10-18T09:15:51.581Z,29.22
2022-10-18T09:18:34.373Z,29.53
2022-10-18T09:21:07.948Z,29.46
2022-10-18T09:23:40.506Z,29.64
2022-10-18T09:26:24.511Z,29.50
2022-10-18T09:29:28.128Z,29.18
2022-10-18T09:32:19.033Z,29.23
2022-10-18T09:35:39.169Z,29.48
2022-10-18T09:38:11.296Z,29.57
2022-10-18T09:40:50.102Z,29.97
2022-10-18T09:43:22.890Z,29.99
2022-10-18T09:45:52.927Z,29.89
2022-10-18T09:48:41.435Z,30.38
2022-10-18T09:51:35.408Z,30.42
2022-10-18T09:54:12.730Z,30.39
2022-10-18T09:56:46.725Z,30.50
2022-10-18T09:59:46.840Z,30.57
2022-10-18T10:02:24.350Z,30.75
2022-10-18T10:04:52.233Z,30.90
2022-10-18T10:07:24.031Z,30.35
2022-10-18T10:10:06.322Z,30.25
2022-10-18T10:12:38.503Z,30.20
2022-10-18T10:15:23.590Z,30.55
2022-10-18T10:17:59.258Z,30.75
2022-10-18T10:20:35.699Z,30.79
2022-10-18T10:23:08.016Z,30.71
2022-10-18T10:25:38.150Z,30.74
2022-10-18T10:28:14.909Z,30.84
2022-10-18T10:30:41.473Z,30.52
2022-10-18T10:33:37.754Z,30.67
2022-10-18T10:36:16.009Z,30.76
2022-10-18T10:38:42.984Z,30.62
2022-10-18T10:41:21.863Z,30.90
2022-10-18T10:43:50.342Z,31.49
2022-10-18T10:46:19.883Z,32.07
2022-10-18T10:49:15.420Z,32.77
2022-10-18T10:51:43.631Z,32.88
2022-10-18T10:54:17.842Z,32.80
2022-10-18T10:57:04.953Z,33.10
2022-10-18T11:02:17.672Z,33.45
2022-10-18T11:04:50.511Z,33.66
2022-10-18T11:07:36.907Z,33.89
2022-10-18T11:10:05.934Z,34.17
2022-10-18T11:12:38.389Z,33.80
2022-10-18T11:15:12.055Z,33.03
2022-10-18T11:18:17.005Z,32.48
2022-10-18T11:20:55.109Z,32.64
2022-10-18T11:23:28.911Z,32.29
2022-10-18T11:26:07.116Z,32.30
2022-10-18T11:28:36.503Z,32.46
2022-10-18T11:31:16.748Z,32.77
2022-10-18T11:34:09.523Z,32.87
2022-10-18T11:36:54.684Z,33.01
2022-10-18T11:39:31.864Z,33.15
2022-10-18T11:42:07.289Z,33.37
2022-10-18T11:44:58.097Z,33.89
2022-10-18T11:47:52.224Z,33.48
2022-10-18T11:50:36.749Z,32.94
2022-10-18T11:53:07.113Z,32.89
2022-10-18T11:55:56.082Z,32.73
2022-10-18T11:58:44.590Z,33.00
2022-10-18T12:01:36.638Z,33.04
2022-10-18T12:04:21.863Z,33.28
2022-10-18T12:06:52.346Z,33.44
2022-10-18T12:09:41.621Z,33.80
2022-10-18T12:12:15.630Z,33.87
2022-10-18T12:14:48.470Z,33.81
2022-10-18T12:17:43.955Z,33.57
2022-10-18T12:20:23.598Z,33.63
2022-10-18T12:23:06.106Z,33.60
2022-10-18T12:25:36.932Z,33.98
2022-10-18T12:28:17.010Z,33.79
2022-10-18T12:31:07.954Z,33.88
2022-10-18T12:33:56.976Z,34.13
2022-10-18T12:36:52.366Z,34.34
2022-10-18T12:39:43.890Z,34.68
2022-10-18T12:42:20.516Z,34.78
2022-10-18T12:44:47.923Z,34.76
2022-10-18T12:47:25.564Z,34.86
2022-10-18T12:50:06.954Z,35.08
2022-10-18T12:52:36.977Z,35.38
2022-10-18T12:55:17.006Z,35.56
2022-10-18T12:57:53.427Z,35.32
2022-10-18T13:00:32.272Z,34.87
2022-10-18T13:03:14.388Z,34.60
2022-10-18T13:05:54.334Z,34.53
2022-10-18T13:08:27.840Z,34.60
2022-10-18T13:11:29.799Z,34.26
2022-10-18T13:13:59.437Z,34.06
2022-10-18T13:16:37.030Z,33.87
2022-10-18T13:19:25.564Z,33.84
2022-10-18T13:22:19.736Z,33.87
2022-10-18T13:25:14.121Z,33.08
2022-10-18T13:27:48.223Z,32.43
2022-10-18T13:30:23.197Z,32.17
2022-10-18T13:33:03.776Z,32.09
2022-10-18T13:35:49.082Z,32.39
2022-10-18T13:38:52.961Z,32.79
2022-10-18T13:41:25.530Z,33.11
2022-10-18T13:44:11.379Z,33.41
2022-10-18T13:46:37.815Z,33.52
2022-10-18T13:49:22.665Z,33.43
2022-10-18T13:52:16.765Z,33.15
2022-10-18T13:55:16.955Z,33.19
2022-10-18T13:58:07.939Z,33.03
2022-10-18T14:00:49.140Z,32.84
2022-10-18T14:03:55.072Z,33.01
2022-10-18T14:06:18.987Z,32.39
2022-10-18T14:09:25.609Z,31.60
2022-10-18T14:11:57.741Z,31.72
2022-10-18T14:14:45.337Z,31.89
2022-10-18T14:17:33.994Z,32.11
2022-10-18T14:20:27.214Z,32.38
2022-10-18T14:23:14.247Z,32.57
2022-10-18T14:25:41.350Z,32.59
2022-10-18T14:28:31.406Z,32.70
2022-10-18T14:31:18.223Z,32.86
2022-10-18T14:33:57.228Z,32.57
2022-10-18T14:36:39.694Z,32.17
2022-10-18T14:39:16.881Z,32.27
2022-10-18T14:41:57.252Z,32.23
2022-10-18T14:44:31.837Z,32.04
2022-10-18T14:47:02.751Z,31.93
2022-10-18T14:49:29.864Z,31.89
2022-10-18T14:51:59.290Z,30.96
2022-10-18T14:54:31.649Z,30.29
2022-10-18T14:57:00.208Z,29.96
2022-10-18T14:59:29.796Z,29.79
2022-10-18T15:02:05.183Z,29.93
2022-10-18T15:04:35.166Z,29.90
2022-10-18T15:07:08.203Z,30.12
2022-10-18T15:09:36.954Z,30.06
2022-10-18T15:12:05.788Z,29.86
2022-10-18T15:14:33.845Z,29.38
2022-10-18T15:17:08.078Z,29.09
2022-10-18T15:19:36.719Z,28.85
2022-10-18T15:22:30.882Z,28.65
2022-10-18T15:25:08.775Z,28.38
2022-10-18T15:27:39.061Z,28.29
2022-10-18T15:30:16.265Z,27.99
2022-10-18T15:32:52.953Z,27.80
2022-10-18T15:35:33.124Z,27.61
2022-10-18T15:38:14.530Z,27.25
2022-10-18T15:40:42.098Z,27.02
2022-10-18T15:43:23.548Z,26.78
2022-10-18T15:46:05.372Z,26.56
2022-10-18T15:48:41.342Z,26.55
2022-10-18T15:51:19.464Z,26.29
2022-10-18T15:53:52.658Z,26.19
2022-10-18T15:56:34.866Z,26.11
2022-10-18T15:59:20.335Z,26.03
2022-10-18T16:01:47.018Z,25.99
2022-10-18T16:04:33.157Z,25.81
2022-10-18T16:07:00.514Z,25.72
2022-10-18T16:09:29.204Z,25.52
2022-10-18T16:11:57.415Z,25.33
2022-10-18T16:14:26.159Z,25.17
2022-10-18T16:17:02.866Z,25.01
2022-10-18T16:19:30.518Z,25.08
2022-10-18T16:21:57.904Z,24.86
2022-10-18T16:24:25.827Z,24.76
2022-10-18T16:26:53.170Z,24.84
2022-10-18T16:29:28.672Z,24.68
2022-10-18T16:31:58.175Z,24.41
2022-10-18T16:34:27.066Z,24.50
2022-10-18T16:36:53.826Z,24.42
2022-10-18T16:39:21.766Z,24.33
2022-10-18T16:41:48.682Z,24.09
2022-10-18T16:44:16.429Z,24.07
2022-10-18T16:46:43.090Z,23.98
2022-10-18T16:51:52.456Z,23.83
2022-10-18T16:54:19.058Z,23.79
2022-10-18T16:56:47.665Z,23.64
2022-10-18T16:59:31.647Z,23.54
2022-10-18T17:01:58.303Z,23.43
2022-10-18T17:04:24.877Z,23.40
2022-10-18T17:06:54.460Z,23.31
2022-10-18T17:09:20.982Z,23.13
2022-10-18T17:11:47.482Z,23.10
2022-10-18T17:14:13.988Z,23.01
2022-10-18T17:16:45.636Z,22.72
2022-10-18T17:19:15.529Z,22.95
2022-10-18T17:21:42.049Z,22.82
2022-10-18T17:24:08.604Z,22.81
2022-10-18T17:26:35.114Z,22.65
2022-10-18T17:29:05.132Z,22.66
2022-10-18T17:31:32.383Z,22.55
2022-10-18T17:34:01.787Z,22.49
2022-10-18T17:36:31.040Z,22.45
2022-10-18T17:38:58.002Z,22.32
2022-10-18T17:41:24.659Z,22.20
2022-10-18T17:43:51.236Z,22.07
2022-10-18T17:46:18.151Z,22.04
2022-10-18T17:48:45.349Z,22.00
2022-10-18T17:51:14.883Z,21.86
2022-10-18T17:53:41.445Z,21.82
2022-10-18T17:56:08.171Z,21.71
2022-10-18T17:58:35.164Z,21.58
2022-10-18T18:01:19.047Z,21.60
2022-10-18T18:03:47.822Z,21.39
2022-10-18T18:06:20.356Z,21.43
2022-10-18T18:08:47.767Z,21.23
2022-10-18T18:11:14.808Z,21.20
2022-10-18T18:13:41.628Z,21.08
2022-10-18T18:16:23.267Z,20.96
2022-10-18T18:18:52.337Z,20.85
2022-10-18T18:21:19.569Z,20.73
2022-10-18T18:23:48.677Z,20.69
2022-10-18T18:26:15.774Z,20.73
2022-10-18T18:28:42.801Z,20.69
2022-10-18T18:31:13.156Z,20.66
2022-10-18T18:33:39.832Z,20.62
2022-10-18T18:36:07.066Z,20.49
2022-10-18T18:38:34.768Z,20.52
2022-10-18T18:41:13.661Z,20.57
2022-10-18T18:43:46.813Z,20.55
2022-10-18T18:46:13.760Z,20.47
2022-10-18T18:48:41.112Z,20.40
2022-10-18T18:51:13.414Z,20.31
2022-10-18T18:53:42.396Z,20.14
2022-10-18T18:56:14.279Z,19.92
2022-10-18T18:58:44.125Z,19.97
2022-10-18T19:01:15.952Z,19.84
2022-10-18T19:03:43.831Z,19.73
2022-10-18T19:06:14.383Z,19.70
2022-10-18T19:08:42.210Z,19.48
2022-10-18T19:11:09.474Z,19.49
2022-10-18T19:13:36.343Z,19.46
2022-10-18T19:16:20.129Z,19.57
2022-10-18T19:19:01.054Z,19.27
2022-10-18T19:21:33.185Z,19.36
2022-10-18T19:24:00.086Z,19.30
2022-10-18T19:26:32.367Z,19.21
2022-10-18T19:29:16.457Z,19.03
2022-10-18T19:31:44.006Z,19.17
2022-10-18T19:34:12.436Z,19.00
2022-10-18T19:36:41.977Z,18.87
2022-10-18T19:39:12.153Z,18.89
2022-10-18T19:41:50.815Z,18.71
2022-10-18T19:44:19.293Z,18.85
2022-10-18T19:46:47.124Z,18.87
2022-10-18T19:49:15.833Z,18.56
2022-10-18T19:51:43.055Z,18.66
2022-10-18T19:54:13.735Z,18.74
2022-10-18T19:56:41.801Z,18.58
2022-10-18T19:59:10.050Z,18.63
2022-10-18T20:01:39.424Z,18.61
2022-10-18T20:04:07.400Z,18.44
2022-10-18T20:06:39.067Z,18.24
2022-10-18T20:09:12.390Z,18.47
2022-10-18T20:11:41.737Z,18.46
2022-10-18T20:14:09.802Z,18.30
2022-10-18T20:16:37.053Z,18.32
2022-10-18T20:19:07.261Z,18.25
2022-10-18T20:21:36.260Z,18.16
2022-10-18T20:24:07.594Z,18.10
2022-10-18T20:26:35.901Z,17.92
2022-10-18T20:29:03.212Z,18.12
2022-10-18T20:31:39.361Z,18.03
2022-10-18T20:34:11.863Z,17.99
2022-10-18T20:36:39.384Z,18.00
2022-10-18T20:39:07.010Z,17.85
2022-10-18T20:41:36.583Z,17.81
2022-10-18T20:44:07.123Z,17.72
2022-10-18T20:46:36.281Z,17.68
2022-10-18T20:49:04.126Z,17.61
2022-10-18T20:51:30.778Z,17.61
2022-10-18T20:53:57.659Z,17.67
2022-10-18T20:56:27.210Z,17.69
2022-10-18T20:58:56.435Z,17.50
2022-10-18T21:01:28.363Z,17.63
2022-10-18T21:03:57.312Z,17.60
2022-10-18T21:06:26.311Z,17.60
2022-10-18T21:09:00.857Z,17.58
2022-10-18T21:11:29.179Z,17.56
2022-10-18T21:13:59.572Z,17.68
2022-10-18T21:16:27.229Z,17.66
2022-10-18T21:18:53.848Z,17.44
2022-10-18T21:21:23.445Z,17.53
2022-10-18T21:23:51.180Z,17.49
2022-10-18T21:26:22.190Z,17.47
2022-10-18T21:28:59.508Z,17.43
2022-10-18T21:31:29.245Z,17.45
2022-10-18T21:33:58.291Z,17.40
2022-10-18T21:36:25.909Z,17.49
2022-10-18T21:38:52.661Z,17.49
2022-10-18T21:41:21.006Z,17.46
2022-10-18T21:43:50.367Z,17.47
2022-10-18T21:46:18.877Z,17.40
2022-10-18T21:48:50.611Z,17.40
2022-10-18T21:51:19.408Z,17.32
2022-10-18T21:53:47.934Z,17.16
2022-10-18T21:56:19.830Z,17.17
2022-10-18T21:58:47.019Z,17.32
2022-10-18T22:01:28.378Z,17.31
2022-10-18T22:03:56.654Z,17.20
2022-10-18T22:06:24.131Z,17.06
2022-10-18T22:08:56.245Z,16.97
2022-10-18T22:11:27.034Z,16.93
2022-10-18T22:13:54.140Z,16.93
2022-10-18T22:16:21.011Z,16.74
2022-10-18T22:18:49.135Z,16.93
2022-10-18T22:21:18.264Z,16.69
2022-10-18T22:23:48.083Z,16.66
2022-10-18T22:26:22.759Z,16.57
2022-10-18T22:28:56.684Z,16.70
2022-10-18T22:31:25.491Z,16.62
2022-10-18T22:33:57.130Z,16.56
2022-10-18T22:36:25.887Z,16.49
2022-10-18T22:38:52.511Z,16.57
2022-10-18T22:41:19.179Z,16.55
2022-10-18T22:43:47.687Z,16.25
2022-10-18T22:46:15.301Z,16.33
2022-10-18T22:48:42.899Z,16.33
2022-10-18T22:51:10.033Z,16.30
2022-10-18T22:53:37.355Z,16.19
2022-10-18T22:56:05.676Z,16.20
2022-10-18T22:58:32.864Z,16.29
2022-10-18T23:01:05.095Z,16.35
2022-10-18T23:03:31.727Z,16.42
2022-10-18T23:05:58.653Z,16.52
2022-10-18T23:08:25.345Z,16.72
2022-10-18T23:10:57.088Z,16.50
2022-10-18T23:13:25.364Z,16.64
2022-10-18T23:15:52.284Z,16.64
2022-10-18T23:18:20.692Z,16.62
2022-10-18T23:20:47.255Z,16.65
2022-10-18T23:23:14.107Z,16.64
2022-10-18T23:25:40.700Z,16.59
2022-10-18T23:28:07.233Z,16.51
2022-10-18T23:30:34.327Z,16.61
2022-10-18T23:33:00.914Z,16.64
2022-10-18T23:35:27.486Z,16.81
2022-10-18T23:37:53.996Z,16.92
2022-10-18T23:40:20.577Z,16.88
2022-10-18T23:42:47.165Z,16.81
2022-10-18T23:45:13.687Z,16.67
2022-10-18T23:47:40.218Z,16.74
2022-10-18T23:50:07.102Z,16.66
2022-10-18T23:52:33.636Z,16.60
2022-10-18T23:55:00.163Z,16.61
2022-10-18T23:57:26.688Z,16.48
2022-10-18T23:59:53.191Z,16.53
